Time;durP1;ratioP1;P1;durP2;ratioP2;P2;SDS_P1;SDS_P2;PMS_P1;PMS_P2;Temp;Humidity;BMP_temperature;BMP_pressure;BME280_temperature;BME280_humidity;BME280_pressure;Samples;Min_cycle;Max_cycle;Signal;HPM_P1;HPM_P2
2022/09/23 00:00:42;;;;;;;3.47;1.62;;;;;;;22.24;39.58;100902.47;1710045;83;21033;-75
2022/09/23 00:03:09;;;;;;;2.00;1.42;;;;;;;22.24;39.57;100903.29;1710188;83;21068;-75
2022/09/23 00:05:36;;;;;;;2.17;1.50;;;;;;;22.24;39.58;100899.70;1709953;83;21067;-75
2022/09/23 00:08:05;;;;;;;2.40;1.55;;;;;;;22.24;39.59;100903.29;1710106;83;21538;-75
2022/09/23 00:10:31;;;;;;;2.90;1.27;;;;;;;22.24;39.61;100901.09;1709954;83;21280;-75
2022/09/23 00:12:58;;;;;;;3.62;1.92;;;;;;;22.23;39.61;100898.91;1724836;81;21035;-75
2022/09/23 00:15:25;;;;;;;2.60;1.42;;;;;;;22.23;39.61;100892.55;1724495;82;21044;-75
2022/09/23 00:17:51;;;;;;;2.20;1.22;;;;;;;22.23;39.60;100900.30;1720688;83;21056;-75
2022/09/23 00:20:18;;;;;;;2.17;1.35;;;;;;;22.24;39.62;100895.54;1720533;83;21091;-75
2022/09/23 00:22:52;;;;;;;2.05;1.60;;;;;;;22.23;39.64;100893.37;1720565;82;22199;-75
2022/09/23 00:25:18;;;;;;;3.80;1.47;;;;;;;22.22;39.62;100894.50;1720764;83;21494;-75
2022/09/23 00:27:44;;;;;;;3.50;1.50;;;;;;;22.23;39.64;100897.52;1720479;83;21107;-75
2022/09/23 00:30:17;;;;;;;2.08;1.52;;;;;;;22.22;39.65;100894.50;1720283;83;21542;-75
2022/09/23 00:32:43;;;;;;;1.70;1.40;;;;;;;22.23;39.65;100887.01;1720583;82;21499;-75
2022/09/23 00:35:09;;;;;;;2.75;1.70;;;;;;;22.22;39.66;100884.80;1720473;83;21761;-75
2022/09/23 00:37:36;;;;;;;2.02;1.40;;;;;;;22.23;39.66;100889.21;1720770;82;21024;-75
2022/09/23 00:40:02;;;;;;;1.65;1.22;;;;;;;22.23;39.69;100885.63;1720954;83;21574;-75
2022/09/23 00:42:29;;;;;;;2.70;1.55;;;;;;;22.22;39.66;100884.80;1720310;83;21072;-75
2022/09/23 00:44:58;;;;;;;2.27;1.57;;;;;;;22.23;39.68;100890.59;1720712;83;21075;-75
2022/09/23 00:47:47;;;;;;;2.50;1.70;;;;;;;22.23;39.68;100892.55;1720612;82;21098;-75
2022/09/23 00:50:38;;;;;;;1.90;1.40;;;;;;;22.22;39.70;100896.45;1709996;81;21578;-75
2022/09/23 00:53:07;;;;;;;2.67;1.47;;;;;;;22.22;39.68;100897.27;1708503;83;21051;-75
2022/09/23 00:55:40;;;;;;;2.75;1.45;;;;;;;22.22;39.68;100896.45;1709716;83;21048;-76
2022/09/23 00:58:09;;;;;;;2.77;1.35;;;;;;;22.21;39.70;100897.02;1709775;83;21467;-75
2022/09/23 01:00:36;;;;;;;2.33;1.40;;;;;;;22.22;39.72;100893.69;1709406;83;21182;-75
2022/09/23 01:03:04;;;;;;;2.90;1.50;;;;;;;22.21;39.73;100894.81;1710042;83;20985;-75
2022/09/23 01:05:32;;;;;;;2.67;1.40;;;;;;;22.21;39.74;100897.02;1710398;83;21064;-75
2022/09/23 01:07:59;;;;;;;2.00;1.40;;;;;;;22.21;39.75;100896.20;1709893;83;21132;-75
2022/09/23 01:10:25;;;;;;;2.12;1.37;;;;;;;22.21;39.75;100901.17;1689921;83;21036;-76
2022/09/23 01:13:11;;;;;;;3.50;1.37;;;;;;;22.21;39.75;100901.17;1710212;83;21100;-75
2022/09/23 01:15:48;;;;;;;2.05;1.32;;;;;;;22.21;39.76;100908.67;1709882;83;21044;-75
2022/09/23 01:18:42;;;;;;;2.10;1.37;;;;;;;22.20;39.75;100908.42;1710165;83;21029;-75
2022/09/23 01:21:53;;;;;;;2.33;1.10;;;;;;;22.20;39.76;100908.42;1709894;83;21059;-76
2022/09/23 01:24:34;;;;;;;2.22;1.40;;;;;;;22.19;39.77;100912.36;1710012;83;21076;-75
2022/09/23 01:27:18;;;;;;;2.05;1.50;;;;;;;22.19;39.75;100914.53;1699151;83;21116;-75
2022/09/23 01:30:10;;;;;;;2.25;1.40;;;;;;;22.19;39.76;100920.67;1690241;83;21076;-75
2022/09/23 01:33:10;;;;;;;1.70;1.10;;;;;;;22.18;39.77;100916.27;1695951;83;21059;-75
2022/09/23 01:35:50;;;;;;;2.20;1.10;;;;;;;22.17;39.79;100914.63;1711806;83;21084;-75
2022/09/23 01:38:45;;;;;;;2.00;1.40;;;;;;;22.17;39.77;100913.23;1695831;83;21067;-75
2022/09/23 01:41:20;;;;;;;2.00;1.30;;;;;;;22.16;39.80;100915.19;1710984;83;21546;-75
2022/09/23 01:44:07;;;;;;;1.98;1.40;;;;;;;22.15;39.80;100908.02;1686107;84;21052;-75
2022/09/23 01:46:39;;;;;;;2.80;1.52;;;;;;;22.16;39.82;100915.76;1685931;85;21064;-75
2022/09/23 01:49:32;;;;;;;1.87;1.35;;;;;;;22.15;39.83;100905.84;1710227;83;21056;-75
2022/09/23 01:52:06;;;;;;;5.60;1.32;;;;;;;22.16;39.85;100909.65;1726813;82;21044;-75
2022/09/23 01:54:40;;;;;;;2.17;1.15;;;;;;;22.14;39.85;100907.79;1685977;83;21432;-77
2022/09/23 01:57:24;;;;;;;2.83;1.40;;;;;;;22.15;39.87;100913.55;1710341;83;21080;-76
2022/09/23 02:00:10;;;;;;;2.08;1.30;;;;;;;22.14;39.89;100916.10;1686082;84;21119;-75
2022/09/23 02:02:40;;;;;;;1.80;1.20;;;;;;;22.14;39.87;100923.59;1667003;84;21056;-75
2022/09/23 02:05:22;;;;;;;;;;;;;;;22.14;39.87;100921.64;1688493;84;21068;-75
2022/09/23 02:07:56;;;;;;;2.20;1.27;;;;;;;22.14;39.92;100924.41;1673218;85;21159;-75
2022/09/23 02:10:36;;;;;;;2.00;1.27;;;;;;;22.13;39.88;100920.01;1672933;85;21520;-75
2022/09/23 02:13:07;;;;;;;2.25;1.20;;;;;;;22.14;39.90;100925.80;1673306;84;21049;-75
2022/09/23 02:15:44;;;;;;;2.67;1.30;;;;;;;22.13;39.90;100924.73;1672881;85;21598;-75
2022/09/23 02:18:18;;;;;;;2.45;1.60;;;;;;;22.14;39.92;100931.91;1673161;85;21737;-75
2022/09/23 02:20:46;;;;;;;2.30;1.37;;;;;;;22.13;39.90;100935.81;1672895;85;21524;-75
2022/09/23 02:23:16;;;;;;;2.12;1.40;;;;;;;22.14;39.91;100933.30;1676347;84;21010;-75
2022/09/23 02:26:09;;;;;;;1.77;1.30;;;;;;;22.13;39.91;100943.56;1685360;84;21487;-75
2022/09/23 02:28:49;;;;;;;1.82;1.30;;;;;;;22.14;39.92;100945.20;1685571;84;21087;-76
2022/09/23 02:31:36;;;;;;;1.87;1.12;;;;;;;22.13;39.91;100940.79;1687479;84;21550;-76
2022/09/23 02:34:20;;;;;;;3.30;1.50;;;;;;;22.14;39.92;100946.59;1687895;84;21683;-79
2022/09/23 02:37:09;;;;;;;3.05;1.20;;;;;;;22.13;39.91;100951.87;1663394;85;21302;-78
2022/09/23 02:40:11;;;;;;;1.90;1.30;;;;;;;22.14;39.92;100960.44;1660574;85;21135;-79
2022/09/23 02:43:09;;;;;;;2.45;1.30;;;;;;;22.14;39.92;100963.78;1644552;85;21092;-79
2022/09/23 02:45:37;;;;;;;1.95;1.35;;;;;;;22.13;39.90;100962.95;1662312;84;21678;-79
2022/09/23 02:48:20;;;;;;;2.33;1.22;;;;;;;22.11;39.92;100955.52;1662436;85;21441;-79
2022/09/23 02:50:46;;;;;;;4.70;1.55;;;;;;;22.12;39.92;100966.86;1660570;84;21343;-79
2022/09/23 02:53:14;;;;;;;2.67;1.20;;;;;;;22.13;39.94;100963.52;1662588;85;21108;-78
2022/09/23 02:55:41;;;;;;;2.17;1.37;;;;;;;22.12;39.94;100961.32;1662533;84;21084;-79
2022/09/23 02:58:07;;;;;;;2.80;1.30;;;;;;;22.13;39.97;100960.75;1662208;86;21044;-79
2022/09/23 03:00:52;;;;;;;4.15;1.42;;;;;;;22.13;39.98;100959.37;1662337;84;20996;-79
2022/09/23 03:03:39;;;;;;;1.87;1.10;;;;;;;22.13;39.99;100957.98;1662119;86;21482;-79
2022/09/23 03:06:30;;;;;;;1.80;1.30;;;;;;;22.13;39.97;100960.19;1662533;84;21365;-79
2022/09/23 03:09:11;;;;;;;2.45;1.20;;;;;;;22.12;39.95;100957.73;1662112;84;21705;-80
2022/09/23 03:11:39;;;;;;;2.70;1.37;;;;;;;22.13;39.96;100960.19;1662416;86;21132;-80
2022/09/23 03:14:32;;;;;;;3.20;1.35;;;;;;;22.12;39.95;100966.86;1660891;84;21870;-80
2022/09/23 03:17:05;;;;;;;2.02;1.12;;;;;;;22.12;39.98;100961.88;1643205;86;21091;-78
2022/09/23 03:19:46;;;;;;;1.70;1.30;;;;;;;22.12;39.98;100960.50;1630150;87;21148;-78
2022/09/23 03:22:29;;;;;;;2.67;1.30;;;;;;;22.12;39.98;100966.86;1692971;84;21104;-78
2022/09/23 03:24:59;;;;;;;4.45;1.47;;;;;;;22.12;39.99;100964.66;1659042;85;21662;-78
2022/09/23 03:27:26;;;;;;;3.43;1.47;;;;;;;22.12;39.98;100968.25;1692778;83;21201;-79
2022/09/23 03:29:52;;;;;;;1.95;1.60;;;;;;;22.12;39.99;100974.35;1682911;84;21068;-78
2022/09/23 03:32:21;;;;;;;2.20;1.30;;;;;;;22.12;40.00;100976.56;1690892;83;21142;-78
2022/09/23 03:34:50;;;;;;;2.08;1.40;;;;;;;22.12;40.01;100975.73;1685979;84;21068;-78
2022/09/23 03:38:02;;;;;;;2.10;1.00;;;;;;;22.12;40.01;100979.33;1686139;84;21688;-78
2022/09/23 03:40:31;;;;;;;2.50;1.37;;;;;;;22.13;40.00;100978.20;1685656;83;22367;-79
2022/09/23 03:43:00;;;;;;;1.77;1.20;;;;;;;22.13;39.99;100981.53;1685843;83;21072;-79
2022/09/23 03:45:30;;;;;;;1.75;1.17;;;;;;;22.11;39.99;100974.92;1664759;85;21060;-79
2022/09/23 03:47:56;;;;;;;1.57;1.12;;;;;;;22.12;40.00;100972.41;1685922;84;27345;-79
2022/09/23 03:50:23;;;;;;;2.42;1.40;;;;;;;22.11;40.01;100973.53;1685901;84;21075;-80
2022/09/23 03:52:58;;;;;;;2.20;1.55;;;;;;;22.12;40.01;100981.28;1714731;83;22081;-78
2022/09/23 03:55:26;;;;;;;3.45;1.30;;;;;;;22.13;39.97;100991.23;1711437;82;21146;-79
2022/09/23 03:57:54;;;;;;;3.22;1.45;;;;;;;22.13;39.94;100988.47;1717654;83;21091;-79
2022/09/23 04:00:24;;;;;;;2.15;1.50;;;;;;;22.12;39.89;100990.98;1718239;82;21685;-78
2022/09/23 04:02:51;;;;;;;2.58;1.45;;;;;;;22.11;39.86;100987.95;1718237;83;21087;-78
2022/09/23 04:05:17;;;;;;;5.03;1.40;;;;;;;22.12;39.85;100995.14;1718057;81;21864;-78
2022/09/23 04:07:44;;;;;;;1.80;1.10;;;;;;;22.12;39.79;100991.80;1718222;83;21558;-77
2022/09/23 04:10:10;;;;;;;2.10;1.45;;;;;;;22.13;39.77;100992.63;1717865;81;21401;-77
2022/09/23 04:12:37;;;;;;;2.77;1.32;;;;;;;22.12;39.74;100986.26;1717838;83;21064;-78
2022/09/23 04:15:13;;;;;;;3.50;1.60;;;;;;;22.13;39.77;100980.97;1717596;81;21533;-77
2022/09/23 04:17:39;;;;;;;4.35;1.67;;;;;;;22.13;39.74;100981.53;1718179;83;21628;-75
2022/09/23 04:20:06;;;;;;;4.58;1.72;;;;;;;22.10;39.73;100984.39;1687000;83;21127;-75
2022/09/23 04:22:33;;;;;;;5.80;1.85;;;;;;;22.09;39.79;100981.94;1681322;85;21072;-75
2022/09/23 04:25:00;;;;;;;3.45;1.82;;;;;;;22.10;39.79;100982.19;1681924;83;21036;-75
2022/09/23 04:27:26;;;;;;;3.45;1.70;;;;;;;22.11;39.76;100989.34;1697570;83;21055;-74
2022/09/23 04:29:53;;;;;;;4.10;1.75;;;;;;;22.11;39.78;100993.50;1709981;83;21527;-75
2022/09/23 04:32:19;;;;;;;3.62;1.70;;;;;;;22.10;39.75;100994.66;1712275;82;21100;-75
2022/09/23 04:34:52;;;;;;;5.58;2.30;;;;;;;22.09;39.76;100988.86;1696116;82;21061;-76
2022/09/23 04:37:24;;;;;;;4.05;1.98;;;;;;;22.06;39.76;100990.91;1687773;82;21095;-75
2022/09/23 04:39:51;;;;;;;5.80;2.08;;;;;;;22.04;39.77;100987.06;1688637;82;21163;-75
2022/09/23 04:42:17;;;;;;;6.08;1.70;;;;;;;22.00;39.75;100989.41;1680033;83;21316;-77
2022/09/23 04:44:43;;;;;;;4.45;1.77;;;;;;;21.97;39.86;100983.96;1679053;84;21076;-76
2022/09/23 04:47:10;;;;;;;5.37;2.15;;;;;;;21.94;39.92;100981.81;1684326;83;21025;-77
2022/09/23 04:49:37;;;;;;;5.55;2.02;;;;;;;21.93;39.97;100980.77;1680222;83;21048;-77
2022/09/23 04:52:04;;;;;;;13.25;2.72;;;;;;;21.90;40.04;100982.18;1681822;84;21053;-78
2022/09/23 04:54:31;;;;;;;8.68;2.50;;;;;;;21.84;40.09;100980.15;1678629;83;21395;-77
2022/09/23 04:56:58;;;;;;;6.97;2.72;;;;;;;21.81;40.17;100978.00;1680277;83;21677;-75
2022/09/23 04:59:24;;;;;;;7.17;2.15;;;;;;;21.74;40.22;100987.36;1660552;84;21357;-77
2022/09/23 05:01:54;;;;;;;8.78;2.62;;;;;;;21.72;40.42;100986.88;1677735;82;21017;-77
2022/09/23 05:04:19;;;;;;;12.07;2.95;;;;;;;21.72;40.53;100984.67;1672138;83;21564;-78
2022/09/23 05:06:45;;;;;;;12.47;3.30;;;;;;;21.73;40.59;100983.52;1682200;82;21116;-76
2022/09/23 05:09:16;;;;;;;14.30;4.33;;;;;;;21.74;40.59;100990.13;1679943;83;21162;-78
2022/09/23 05:11:43;;;;;;;8.38;3.12;;;;;;;21.74;40.60;100985.97;1682211;83;21086;-76
2022/09/23 05:14:09;;;;;;;9.88;3.15;;;;;;;21.75;40.57;100987.61;1676108;85;21097;-76
2022/09/23 05:16:35;;;;;;;9.18;2.80;;;;;;;21.75;40.55;100985.41;1673419;83;21075;-75
2022/09/23 05:19:04;;;;;;;11.38;3.02;;;;;;;21.76;40.52;100992.58;1674713;83;21588;-77
2022/09/23 05:21:30;;;;;;;10.85;2.77;;;;;;;21.77;40.53;100991.42;1671003;85;21923;-78
2022/09/23 05:24:00;;;;;;;7.50;2.58;;;;;;;21.79;40.55;100990.55;1673763;85;21341;-77
2022/09/23 05:26:29;;;;;;;10.72;2.90;;;;;;;21.75;40.52;100990.95;1684676;83;21181;-78
2022/09/23 05:28:57;;;;;;;10.30;3.15;;;;;;;21.76;40.50;100991.20;1677023;85;21223;-84
2022/09/23 05:31:26;;;;;;;9.88;3.62;;;;;;;21.77;40.49;100991.42;1675191;83;21214;-80
2022/09/23 05:33:56;;;;;;;8.40;3.35;;;;;;;21.78;40.46;100995.83;1691044;83;21233;-82
2022/09/23 05:36:22;;;;;;;11.47;4.13;;;;;;;21.78;40.39;100998.60;1697102;83;21091;-83
2022/09/23 05:38:50;;;;;;;13.03;4.92;;;;;;;21.76;40.38;101001.72;1694655;83;21179;-84
2022/09/23 05:41:17;;;;;;;10.80;4.17;;;;;;;21.76;40.40;101000.89;1692369;83;21001;-82
2022/09/23 05:43:43;;;;;;;10.55;4.75;;;;;;;21.78;40.37;101004.14;1685817;83;21132;-77
2022/09/23 05:46:12;;;;;;;11.28;4.65;;;;;;;21.79;40.36;100998.30;1686978;83;21545;-76
2022/09/23 05:48:39;;;;;;;12.78;3.65;;;;;;;21.77;40.29;101001.94;1689464;83;21049;-76
2022/09/23 05:51:09;;;;;;;8.83;3.65;;;;;;;21.75;40.42;100996.48;1688643;83;21046;-76
2022/09/23 05:53:35;;;;;;;15.83;3.37;;;;;;;21.72;40.56;101000.72;1693984;83;21066;-77
2022/09/23 05:56:02;;;;;;;15.05;3.10;;;;;;;21.72;40.89;101003.49;1701578;83;21900;-76
2022/09/23 05:58:34;;;;;;;26.82;3.80;;;;;;;21.73;41.17;101011.20;1692471;82;21103;-75
2022/09/23 06:01:03;;;;;;;23.77;4.03;;;;;;;21.77;41.48;101011.62;1689770;82;21162;-77
2022/09/23 06:03:29;;;;;;;24.57;4.62;;;;;;;21.80;41.51;101017.12;1689744;82;21903;-79
2022/09/23 06:05:58;;;;;;;13.68;3.47;;;;;;;21.81;41.58;101014.00;1693829;82;21080;-83
2022/09/23 06:08:25;;;;;;;18.45;3.33;;;;;;;21.84;41.59;101023.08;1691949;83;21203;-84
2022/09/23 06:10:51;;;;;;;23.55;4.20;;;;;;;21.87;41.68;101015.51;1689251;83;21029;-89
2022/09/23 06:13:17;;;;;;;25.12;6.30;;;;;;;21.92;41.97;101020.65;1714745;82;21662;-80
2022/09/23 06:15:44;;;;;;;16.67;4.67;;;;;;;21.93;42.05;101019.55;1693457;82;21046;-81
2022/09/23 06:18:11;;;;;;;19.67;5.33;;;;;;;21.95;41.98;101019.47;1706333;83;21087;-81
2022/09/23 06:20:37;;;;;;;18.25;4.55;;;;;;;21.97;42.02;101026.08;1671069;83;22182;-85
2022/09/23 06:23:05;;;;;;;18.73;6.75;;;;;;;21.98;41.94;101023.56;1692640;82;21112;-84
2022/09/23 06:25:40;;;;;;;15.45;7.17;;;;;;;21.99;42.01;101029.33;1713203;81;21609;-89
2022/09/23 06:28:11;;;;;;;14.83;4.53;;;;;;;21.99;42.04;101025.17;1706510;82;21132;-90
2022/09/23 06:30:34;;;;;;;13.40;4.72;;;;;;;22.00;41.95;101030.41;1701733;82;22016;-87
2022/09/23 06:33:02;;;;;;;15.38;4.53;;;;;;;22.00;41.96;101028.20;1659509;83;50997;-86
2022/09/23 06:35:28;;;;;;;11.95;4.42;;;;;;;22.00;41.95;101027.63;1706398;82;21052;-80
2022/09/23 06:37:54;;;;;;;11.35;4.03;;;;;;;22.00;41.87;101030.97;1701844;82;21097;-79
2022/09/23 06:40:21;;;;;;;9.50;3.65;;;;;;;22.00;41.75;101031.79;1683625;82;21091;-80
2022/09/23 06:42:48;;;;;;;10.93;4.50;;;;;;;22.00;41.73;101030.97;1701554;82;21120;-78
2022/09/23 06:45:15;;;;;;;7.80;3.98;;;;;;;22.00;41.67;101037.33;1713477;82;21548;-88
2022/09/23 06:47:42;;;;;;;13.45;3.70;;;;;;;22.00;41.46;101041.48;1705072;82;21090;-84
2022/09/23 06:50:11;;;;;;;8.00;2.52;;;;;;;21.94;41.24;101036.42;1669804;83;21167;-84
2022/09/23 06:52:37;;;;;;;14.15;2.95;;;;;;;21.87;41.04;101033.52;1682770;83;21395;-82
2022/09/23 06:55:05;;;;;;;33.08;4.30;;;;;;;21.81;41.03;101040.91;1691180;82;21078;-80
2022/09/23 06:57:32;;;;;;;15.90;3.30;;;;;;;21.73;40.93;101041.10;1717017;82;21210;-79
2022/09/23 07:00:06;;;;;;;12.13;2.83;;;;;;;21.68;41.28;101044.04;1681292;81;21127;-80
2022/09/23 07:02:32;;;;;;;11.73;2.45;;;;;;;21.62;41.09;101043.92;1687294;83;21117;-79
2022/09/23 07:04:59;;;;;;;22.02;3.80;;;;;;;21.56;41.09;101049.33;1684125;83;21064;-77
2022/09/23 07:07:25;;;;;;;17.32;2.83;;;;;;;21.56;41.08;101049.89;1650479;86;21200;-77
2022/09/23 07:09:51;;;;;;;9.88;2.30;;;;;;;21.57;41.05;101046.81;1621988;84;21150;-74
2022/09/23 07:12:18;;;;;;;7.92;2.00;;;;;;;21.60;40.91;101048.94;1673319;84;22145;-77
2022/09/23 07:14:50;;;;;;;8.25;2.08;;;;;;;21.62;40.66;101045.86;1646121;84;21098;-76
2022/09/23 07:17:16;;;;;;;12.15;2.60;;;;;;;21.65;40.52;101051.58;1685366;82;21098;-75
2022/09/23 07:19:43;;;;;;;5.08;2.60;;;;;;;21.67;40.62;101056.24;1697956;82;21140;-75
2022/09/23 07:22:10;;;;;;;11.12;2.45;;;;;;;21.69;40.56;101060.06;1690029;83;21064;-77
2022/09/23 07:24:37;;;;;;;7.03;2.45;;;;;;;21.70;40.39;101055.59;1677754;83;21033;-76
2022/09/23 07:27:04;;;;;;;9.23;2.17;;;;;;;21.71;40.39;101060.57;1695320;81;21871;-76
2022/09/23 07:29:30;;;;;;;5.65;2.33;;;;;;;21.72;40.23;101060.83;1727047;81;21063;-76
2022/09/23 07:31:57;;;;;;;7.75;3.33;;;;;;;21.68;40.13;101062.60;1723966;81;21142;-76
2022/09/23 07:34:23;;;;;;;7.28;2.65;;;;;;;21.69;40.15;101063.65;1723760;81;22410;-76
2022/09/23 07:36:50;;;;;;;6.00;2.52;;;;;;;21.69;40.11;101063.65;1720699;81;21099;-77
2022/09/23 07:39:16;;;;;;;6.12;2.95;;;;;;;21.70;40.14;101069.44;1722160;81;21079;-78
2022/09/23 07:41:43;;;;;;;10.45;3.27;;;;;;;21.72;40.32;101072.73;1723358;81;22307;-79
2022/09/23 07:44:10;;;;;;;9.60;2.67;;;;;;;21.74;40.46;101069.05;1721300;81;22001;-79
2022/09/23 07:46:36;;;;;;;12.45;3.20;;;;;;;21.77;40.81;101064.25;1717917;81;21979;-75
2022/09/23 07:49:04;;;;;;;14.13;2.62;;;;;;;21.80;41.13;101074.72;1697054;82;21085;-76
2022/09/23 07:51:35;;;;;;;22.55;4.08;;;;;;;21.82;41.18;101074.37;1691078;82;21067;-76
2022/09/23 07:54:02;;;;;;;18.32;4.05;;;;;;;21.79;41.24;101070.30;1695847;82;21099;-74
2022/09/23 07:56:29;;;;;;;25.82;5.10;;;;;;;21.79;41.61;101070.30;1701788;82;21083;-80
2022/09/23 07:59:04;;;;;;;26.80;6.40;;;;;;;21.78;41.55;101077.53;1696054;82;21333;-77
2022/09/23 08:01:37;;;;;;;17.25;5.25;;;;;;;21.76;41.72;101079.82;1696036;82;21131;-78
2022/09/23 08:04:10;;;;;;;22.10;4.15;;;;;;;21.69;41.49;101082.21;1723386;81;21115;-80
2022/09/23 08:06:50;;;;;;;16.25;5.42;;;;;;;21.66;41.54;101080.91;1721785;81;21406;-77
2022/09/23 08:09:25;;;;;;;14.35;4.30;;;;;;;21.65;41.76;101082.03;1721701;81;21174;-78
2022/09/23 08:11:51;;;;;;;8.38;4.15;;;;;;;21.64;41.58;101086.53;1711942;82;21131;-75
2022/09/23 08:14:18;;;;;;;9.23;4.00;;;;;;;21.61;41.48;101074.68;1718218;81;21067;-79
2022/09/23 08:16:45;;;;;;;8.80;3.85;;;;;;;21.61;41.39;101076.06;1716814;82;21083;-79
2022/09/23 08:19:12;;;;;;;8.90;3.55;;;;;;;21.58;41.16;101071.17;1707881;82;21572;-76
2022/09/23 08:21:39;;;;;;;8.55;3.12;;;;;;;21.55;41.06;101076.79;1702115;83;21146;-77
2022/09/23 08:24:12;;;;;;;9.00;2.80;;;;;;;21.48;40.87;101075.02;1695202;83;21176;-77
2022/09/23 08:26:38;;;;;;;8.40;3.45;;;;;;;21.46;40.83;101079.25;1714980;82;21179;-77
2022/09/23 08:29:05;;;;;;;7.45;4.62;;;;;;;21.44;40.91;101082.33;1700707;82;21870;-76
2022/09/23 08:31:31;;;;;;;7.37;4.40;;;;;;;21.42;40.82;101083.22;1714048;82;21543;-77
2022/09/23 08:33:59;;;;;;;8.13;4.45;;;;;;;21.30;40.55;101071.33;1670110;83;21108;-82
2022/09/23 08:36:27;;;;;;;10.48;4.85;;;;;;;21.17;40.49;101075.57;1672322;84;21303;-79
2022/09/23 08:38:54;;;;;;;8.78;4.78;;;;;;;21.05;40.23;101073.91;1673641;84;21220;-74
2022/09/23 08:41:55;;;;;;;10.40;5.90;;;;;;;20.93;40.23;101076.65;1677109;84;21081;-79
2022/09/23 08:44:41;;;;;;;;;;;;;;;20.85;40.19;101073.81;1663062;84;21059;-78
2022/09/23 08:47:42;;;;;;;10.40;3.67;;;;;;;20.77;40.17;101076.77;1660178;84;20470;-80
2022/09/23 08:50:22;;;;;;;14.05;3.02;;;;;;;20.71;40.26;101079.38;1676409;83;21410;-79
2022/09/23 08:52:55;;;;;;;6.72;2.70;;;;;;;20.60;40.33;101074.41;1656150;83;21122;-83
2022/09/23 08:55:39;;;;;;;4.37;2.30;;;;;;;20.57;40.44;101070.33;1662842;84;21063;-80
2022/09/23 08:58:20;;;;;;;8.78;2.95;;;;;;;20.61;40.43;101069.13;1604931;84;21181;-78
2022/09/23 09:01:09;;;;;;;7.10;2.10;;;;;;;20.67;40.53;101074.22;1669181;83;21593;-80
2022/09/23 09:03:52;;;;;;;6.12;2.00;;;;;;;20.75;40.57;101071.30;1635104;86;21527;-84
2022/09/23 09:06:29;;;;;;;6.95;1.90;;;;;;;20.81;40.49;101068.09;1641182;85;21163;-81
2022/09/23 09:08:59;;;;;;;4.80;1.75;;;;;;;20.81;40.38;101061.74;1675934;83;21137;-81
2022/09/23 09:11:36;;;;;;;11.20;2.00;;;;;;;20.78;40.20;101067.34;1674485;83;21151;-79
2022/09/23 09:14:29;;;;;;;5.65;1.98;;;;;;;20.76;40.20;101056.33;1671229;83;21097;-80
2022/09/23 09:16:59;;;;;;;7.10;2.10;;;;;;;20.76;40.38;101053.56;1675666;83;21176;-82
2022/09/23 09:20:00;;;;;;;5.35;1.87;;;;;;;20.83;40.49;101044.29;1655032;84;21140;-81
2022/09/23 09:22:59;;;;;;;3.72;1.80;;;;;;;20.90;40.51;101048.81;1668871;83;21064;-79
2022/09/23 09:25:48;;;;;;;5.00;2.35;;;;;;;21.00;40.44;101043.59;1673581;84;21064;-79
2022/09/23 09:28:42;;;;;;;5.40;1.90;;;;;;;21.07;40.48;101048.11;1678058;83;21072;-80
2022/09/23 09:31:44;;;;;;;9.20;2.50;;;;;;;21.11;40.39;101054.09;1660624;84;21214;-78
2022/09/23 09:34:31;;;;;;;2.17;1.70;;;;;;;21.14;40.26;101044.36;1689809;81;21145;-78
2022/09/23 09:37:05;;;;;;;5.53;2.10;;;;;;;21.18;40.15;101051.72;1679621;84;21088;-79
2022/09/23 09:39:33;;;;;;;2.85;1.80;;;;;;;21.20;40.08;101050.84;1719822;81;21542;-78
2022/09/23 09:42:00;;;;;;;5.40;1.95;;;;;;;21.23;40.06;101045.23;1694991;82;21033;-79
2022/09/23 09:44:43;;;;;;;4.92;1.90;;;;;;;21.26;39.87;101048.78;1715132;81;21251;-79
2022/09/23 09:47:45;;;;;;;6.55;3.20;;;;;;;21.26;39.83;101046.01;1703742;82;22273;-83
2022/09/23 09:50:20;;;;;;;7.95;2.60;;;;;;;21.26;39.70;101053.72;1695729;81;21087;-79
2022/09/23 09:52:43;;;;;;;5.72;2.37;;;;;;;21.24;39.57;101052.41;1714166;82;21039;-78
2022/09/23 09:55:24;;;;;;;19.57;2.55;;;;;;;21.24;39.66;101046.31;1696683;82;21302;-78
2022/09/23 09:58:04;;;;;;;17.35;2.35;;;;;;;21.32;40.23;101044.73;1710301;81;22692;-76
2022/09/23 10:00:34;;;;;;;23.90;2.67;;;;;;;21.42;40.61;101038.94;1713442;81;21102;-78
2022/09/23 10:03:08;;;;;;;14.80;2.40;;;;;;;21.46;40.41;101048.23;1712753;82;22053;-79
2022/09/23 10:05:48;;;;;;;16.93;2.60;;;;;;;21.48;40.10;101047.34;1677811;81;21145;-81
2022/09/23 10:08:26;;;;;;;14.20;2.30;;;;;;;21.50;39.83;101046.47;1716089;82;21094;-80
2022/09/23 10:11:14;;;;;;;5.75;2.02;;;;;;;21.50;39.64;101049.23;1705806;82;22223;-82
2022/09/23 10:13:43;;;;;;;6.17;1.70;;;;;;;21.48;39.36;101038.21;1656630;84;21171;-80
2022/09/23 10:16:09;;;;;;;3.67;1.52;;;;;;;21.47;39.43;101042.95;1678198;82;21091;-79
2022/09/23 10:18:52;;;;;;;3.87;1.65;;;;;;;21.47;39.30;101046.29;1693088;81;21091;-81
2022/09/23 10:21:21;;;;;;;3.77;1.72;;;;;;;21.47;39.40;101035.22;1707394;81;21604;-81
2022/09/23 10:23:51;;;;;;;6.55;1.85;;;;;;;21.49;39.28;101028.78;1712920;82;21307;-79
2022/09/23 10:26:26;;;;;;;4.37;1.75;;;;;;;21.47;39.19;101036.04;1707093;82;21183;-80
2022/09/23 10:28:58;;;;;;;8.48;1.95;;;;;;;21.49;39.06;101028.78;1690086;82;20925;-78
2022/09/23 10:31:31;;;;;;;3.67;1.60;;;;;;;21.49;38.92;101035.70;1681314;82;20929;-80
2022/09/23 10:34:05;;;;;;;3.87;1.52;;;;;;;21.47;38.84;101024.97;1676079;83;20901;-79
2022/09/23 10:36:31;;;;;;;4.60;1.90;;;;;;;21.45;38.73;101024.45;1676405;83;20970;-80
2022/09/23 10:47:59;;;;;;;3.33;1.32;;;;;;;21.45;38.29;101015.33;1694671;82;21047;-78
2022/09/23 10:50:40;;;;;;;1.65;1.15;;;;;;;21.40;38.15;101011.56;1678455;82;21290;-78
2022/09/23 10:53:13;;;;;;;;;;;;;;;21.37;37.94;101011.39;1680363;84;21848;-80
2022/09/23 10:56:15;;;;;;;12.37;1.67;;;;;;;21.36;38.72;101005.59;1684985;83;20209;-80
2022/09/23 10:58:53;;;;;;;7.00;1.75;;;;;;;21.39;38.61;101000.80;1592458;88;21112;-79
2022/09/23 11:01:46;;;;;;;34.83;2.30;;;;;;;21.41;38.73;101006.28;1683664;82;21068;-81
2022/09/23 11:04:24;;;;;;;17.92;2.10;;;;;;;21.43;38.68;101002.39;1687247;83;21533;-80
2022/09/23 11:07:26;;;;;;;10.98;2.30;;;;;;;21.43;38.80;100998.23;1684522;83;22171;-79
2022/09/23 11:10:18;;;;;;;19.00;2.25;;;;;;;21.44;38.84;100986.83;1672367;85;21091;-84
2022/09/23 11:13:17;;;;;;;8.45;1.67;;;;;;;21.42;38.87;100980.81;1670676;84;21086;-81
2022/09/23 11:16:00;;;;;;;5.90;1.40;;;;;;;21.37;38.88;100976.80;1674221;83;21064;-80
2022/09/23 11:18:50;;;;;;;5.50;2.47;;;;;;;21.32;38.64;100975.54;1676118;83;21153;-80
2022/09/23 11:21:50;;;;;;;3.02;2.00;;;;;;;21.25;38.52;100979.34;1675058;83;21078;-75
2022/09/23 11:24:57;;;;;;;4.30;1.72;;;;;;;21.18;38.50;100965.13;1672462;83;21100;-78
2022/09/23 11:28:03;;;;;;;7.25;2.17;;;;;;;21.14;38.52;100963.56;1664568;83;21092;-77
2022/09/23 11:30:52;;;;;;;4.50;1.60;;;;;;;21.11;38.54;100960.59;1680696;83;21073;-78
2022/09/23 11:33:35;;;;;;;2.92;1.95;;;;;;;21.10;38.54;100952.84;1682663;82;22157;-79
2022/09/23 11:36:06;;;;;;;2.05;1.82;;;;;;;21.12;38.53;100944.25;1627689;84;21043;-78
2022/09/23 11:38:41;;;;;;;5.20;2.77;;;;;;;21.12;38.38;100933.18;1667092;83;20900;-78
2022/09/23 11:41:27;;;;;;;5.12;2.90;;;;;;;21.12;38.42;100929.88;1639488;84;21148;-79
2022/09/23 11:44:21;;;;;;;13.88;6.97;;;;;;;21.11;38.43;100928.20;1647674;84;21064;-79
2022/09/23 11:47:08;;;;;;;6.58;4.40;;;;;;;21.13;38.44;100925.95;1627797;85;21619;-78
2022/09/23 11:49:57;;;;;;;5.12;3.77;;;;;;;21.14;38.38;100919.86;1706511;81;21076;-78
2022/09/23 11:52:40;;;;;;;9.68;3.70;;;;;;;21.18;38.33;100918.09;1691960;82;21110;-77
2022/09/23 11:55:31;;;;;;;6.20;2.02;;;;;;;21.20;38.46;100908.91;1682017;82;21091;-78
2022/09/23 11:58:11;;;;;;;7.40;2.40;;;;;;;21.29;38.79;100912.54;1685725;83;22178;-77
2022/09/23 12:00:43;;;;;;;9.23;1.87;;;;;;;21.36;38.74;100902.63;1695756;81;21082;-78
2022/09/23 12:03:30;;;;;;;12.28;2.00;;;;;;;21.41;38.58;100900.28;1710830;82;21138;-78
2022/09/23 12:06:20;;;;;;;12.20;1.95;;;;;;;21.43;38.37;100898.59;1693681;82;21167;-76